createdAt,value
2018-01-22T00:00:21.035Z,22.6
2018-01-22T00:01:20.942Z,22.4
2018-01-22T00:02:20.841Z,22.3
2018-01-22T00:03:20.878Z,22.3
2018-01-22T00:04:20.717Z,22.2
2018-01-22T00:05:20.650Z,22.1
2018-01-22T00:06:20.733Z,22.1
2018-01-22T00:07:20.511Z,22.1
2018-01-22T00:08:20.538Z,22.1
2018-01-22T00:09:20.372Z,22.1
2018-01-22T00:10:20.294Z,22.1
2018-01-22T00:11:20.237Z,22.1
2018-01-22T00:12:20.318Z,22.1
2018-01-22T00:13:20.099Z,22.1
2018-01-22T00:14:20.143Z,22.1
2018-01-22T00:15:20.078Z,22.1
2018-01-22T00:16:19.893Z,22.2
2018-01-22T00:17:19.823Z,22.2
2018-01-22T00:18:19.743Z,22.3
2018-01-22T00:19:19.784Z,22.3
2018-01-22T00:20:19.767Z,22.3
2018-01-22T00:21:19.649Z,22.4
2018-01-22T00:22:19.501Z,22.4
2018-01-22T00:23:19.406Z,22.4
2018-01-22T00:24:19.314Z,22.5
2018-01-22T00:25:19.271Z,22.6
2018-01-22T00:26:19.229Z,22.6
2018-01-22T00:27:19.232Z,22.6
2018-01-22T00:28:19.105Z,22.7
2018-01-22T00:29:19.095Z,22.8
2018-01-22T00:30:19.025Z,22.9
2018-01-22T00:31:19.142Z,22.9
2018-01-22T00:32:18.827Z,22.8
2018-01-22T00:33:18.731Z,22.7
2018-01-22T00:34:18.635Z,22.6
2018-01-22T00:35:18.582Z,22.5
2018-01-22T00:36:18.487Z,22.4
2018-01-22T00:37:18.450Z,22.4
2018-01-22T00:38:18.398Z,22.4
2018-01-22T00:39:18.593Z,22.3
2018-01-22T00:40:18.539Z,22.3
2018-01-22T00:41:18.167Z,22.3
2018-01-22T00:42:18.178Z,22.4
2018-01-22T00:43:18.129Z,22.4
2018-01-22T00:44:18.068Z,22.3
2018-01-22T00:45:17.986Z,22.4
2018-01-22T00:46:17.934Z,22.3
2018-01-22T00:47:17.752Z,22.4
2018-01-22T00:48:17.789Z,22.4
2018-01-22T00:49:17.731Z,22.4
2018-01-22T00:50:17.670Z,22.4
2018-01-22T00:51:17.491Z,22.5
2018-01-22T00:52:17.508Z,22.6
2018-01-22T00:53:17.349Z,22.6
2018-01-22T00:54:17.542Z,22.6
2018-01-22T00:55:17.216Z,22.7
2018-01-22T00:56:17.136Z,22.8
2018-01-22T00:57:17.380Z,22.7
2018-01-22T00:58:16.990Z,22.6
2018-01-22T00:59:16.931Z,22.4
2018-01-22T01:00:16.832Z,22.2
2018-01-22T01:01:16.892Z,21.9
2018-01-22T01:02:16.720Z,21.5
2018-01-22T01:03:16.663Z,21.2
2018-01-22T01:04:16.581Z,20.8
2018-01-22T01:05:16.514Z,20.4
2018-01-22T01:06:16.578Z,20
2018-01-22T01:07:16.396Z,19.7
2018-01-22T01:08:16.461Z,19.4
2018-01-22T01:09:16.250Z,19
2018-01-22T01:10:16.264Z,18.9
2018-01-22T01:11:16.099Z,19
2018-01-22T01:12:16.074Z,19.1
2018-01-22T01:13:15.965Z,19.4
2018-01-22T01:14:16.027Z,19.9
2018-01-22T01:15:15.837Z,20.3
2018-01-22T01:16:16.004Z,20.6
2018-01-22T01:17:15.687Z,20.8
2018-01-22T01:18:15.629Z,21.1
2018-01-22T01:19:15.561Z,21.3
2018-01-22T01:20:15.579Z,21.5
2018-01-22T01:21:15.416Z,21.7
2018-01-22T01:22:15.415Z,21.9
2018-01-22T01:23:15.376Z,22.1
2018-01-22T01:24:15.243Z,22.2
2018-01-22T01:25:15.136Z,22.3
2018-01-22T01:26:15.082Z,22.4
2018-01-22T01:27:15.001Z,22.6
2018-01-22T01:28:14.901Z,22.7
2018-01-22T01:29:14.962Z,22.8
2018-01-22T01:30:14.912Z,22.9
2018-01-22T01:31:14.722Z,22.8
2018-01-22T01:32:14.696Z,22.8
2018-01-22T01:33:14.684Z,22.9
2018-01-22T01:34:14.518Z,23
2018-01-22T01:35:14.747Z,22.9
2018-01-22T01:36:14.418Z,22.7
2018-01-22T01:37:14.320Z,22.5
2018-01-22T01:38:14.318Z,22.4
2018-01-22T01:39:14.471Z,22.3
2018-01-22T01:40:14.074Z,22.2
2018-01-22T01:41:14.144Z,22.2
2018-01-22T01:42:14.086Z,22.1
2018-01-22T01:43:13.994Z,22.1
2018-01-22T01:44:13.922Z,22
2018-01-22T01:45:13.761Z,22
2018-01-22T01:46:13.668Z,22
2018-01-22T01:47:13.721Z,22
2018-01-22T01:48:13.836Z,22
2018-01-22T01:49:13.792Z,22
2018-01-22T01:50:13.521Z,22.1
2018-01-22T01:51:13.342Z,22.1
2018-01-22T01:52:13.575Z,22.1
2018-01-22T01:53:13.494Z,22.2
2018-01-22T01:54:13.263Z,22.3
2018-01-22T01:55:13.083Z,22.3
2018-01-22T01:56:12.996Z,22.4
2018-01-22T01:57:12.929Z,22.4
2018-01-22T01:58:12.854Z,22.4
2018-01-22T01:59:12.802Z,22.5
2018-01-22T02:00:12.826Z,22.5
2018-01-22T02:01:12.665Z,22.6
2018-01-22T02:02:12.573Z,22.6
2018-01-22T02:03:12.624Z,22.7
2018-01-22T02:04:12.417Z,22.7
2018-01-22T02:05:12.376Z,22.7
2018-01-22T02:06:12.408Z,22.8
2018-01-22T02:07:12.251Z,22.8
2018-01-22T02:08:12.269Z,22.9
2018-01-22T02:09:12.104Z,22.9
2018-01-22T02:10:12.164Z,22.8
2018-01-22T02:11:12.064Z,22.7
2018-01-22T02:12:11.867Z,22.6
2018-01-22T02:13:11.825Z,22.6
2018-01-22T02:14:12.045Z,22.5
2018-01-22T02:15:11.977Z,22.5
2018-01-22T02:16:11.592Z,22.4
2018-01-22T02:17:11.648Z,22.4
2018-01-22T02:18:11.467Z,22.4
2018-01-22T02:19:11.410Z,22.4
2018-01-22T02:20:11.444Z,22.4
2018-01-22T02:21:11.288Z,22.4
2018-01-22T02:22:11.209Z,22.4
2018-01-22T02:23:11.137Z,22.4
2018-01-22T02:24:11.107Z,22.4
2018-01-22T02:25:10.999Z,22.4
2018-01-22T02:26:11.050Z,22.5
2018-01-22T02:27:10.872Z,22.5
2018-01-22T02:28:10.795Z,22.6
2018-01-22T02:29:10.813Z,22.6
2018-01-22T02:30:10.676Z,22.7
2018-01-22T02:31:10.682Z,22.7
2018-01-22T02:32:10.518Z,22.6
2018-01-22T02:33:10.459Z,22.4
2018-01-22T02:34:10.368Z,22.2
2018-01-22T02:35:10.615Z,21.8
2018-01-22T02:36:10.530Z,21.4
2018-01-22T02:37:10.457Z,21.1
2018-01-22T02:38:10.101Z,20.7
2018-01-22T02:39:10.045Z,20.3
2018-01-22T02:40:09.967Z,19.9
2018-01-22T02:41:09.996Z,19.6
2018-01-22T02:42:10.135Z,19.3
2018-01-22T02:43:09.756Z,18.9
2018-01-22T02:44:09.693Z,18.9
2018-01-22T02:45:09.670Z,19
2018-01-22T02:46:09.540Z,19.1
2018-01-22T02:47:09.594Z,19.7
2018-01-22T02:48:09.454Z,20.1
2018-01-22T02:49:09.344Z,20.4
2018-01-22T02:50:09.584Z,20.6
2018-01-22T02:51:09.302Z,20.8
2018-01-22T02:52:09.107Z,21.1
2018-01-22T02:53:09.366Z,21.3
2018-01-22T02:54:09.007Z,21.5
2018-01-22T02:55:08.930Z,21.7
2018-01-22T02:56:08.832Z,21.9
2018-01-22T02:57:08.794Z,21.9
2018-01-22T02:58:08.713Z,22
2018-01-22T02:59:08.751Z,22.1
2018-01-22T03:00:08.740Z,22.2
2018-01-22T03:01:08.515Z,22.3
2018-01-22T03:02:08.428Z,22.3
2018-01-22T03:03:08.379Z,22.4
2018-01-22T03:04:08.279Z,22.4
2018-01-22T03:05:08.336Z,22.5
2018-01-22T03:06:08.196Z,22.5
2018-01-22T03:07:08.102Z,22.6
2018-01-22T03:08:08.131Z,22.6
2018-01-22T03:09:07.960Z,22.6
2018-01-22T03:10:08.009Z,22.6
2018-01-22T03:11:07.825Z,22.6
2018-01-22T03:12:07.726Z,22.6
2018-01-22T03:13:07.799Z,22.6
2018-01-22T03:14:07.642Z,22.6
2018-01-22T03:15:07.546Z,22.6
2018-01-22T03:16:07.483Z,22.6
2018-01-22T03:17:07.509Z,22.6
2018-01-22T03:18:07.314Z,22.6
2018-01-22T03:19:07.275Z,22.7
2018-01-22T03:20:07.207Z,22.8
2018-01-22T03:21:07.225Z,22.9
2018-01-22T03:22:07.085Z,23
2018-01-22T03:23:07.309Z,22.9
2018-01-22T03:24:06.981Z,22.8
2018-01-22T03:25:06.959Z,22.9
2018-01-22T03:26:06.803Z,22.9
2018-01-22T03:27:06.734Z,22.9
2018-01-22T03:28:06.651Z,22.7
2018-01-22T03:29:06.686Z,22.6
2018-01-22T03:30:06.521Z,22.4
2018-01-22T03:31:06.446Z,22.3
2018-01-22T03:32:06.421Z,22.2
2018-01-22T03:33:06.309Z,22.1
2018-01-22T03:34:06.257Z,22.1
2018-01-22T03:35:06.283Z,22.1
2018-01-22T03:36:06.072Z,22
2018-01-22T03:37:06.032Z,22
2018-01-22T03:38:05.984Z,22
2018-01-22T03:39:05.896Z,22
2018-01-22T03:40:05.863Z,22
2018-01-22T03:41:05.758Z,22
2018-01-22T03:42:05.688Z,22.1
2018-01-22T03:43:05.617Z,22.1
2018-01-22T03:44:05.588Z,22.2
2018-01-22T03:45:05.494Z,22.2
2018-01-22T03:46:05.489Z,22.3
2018-01-22T03:47:05.441Z,22.3
2018-01-22T03:48:05.293Z,22.4
2018-01-22T03:49:05.205Z,22.4
2018-01-22T03:50:05.255Z,22.4
2018-01-22T03:51:05.066Z,22.5
2018-01-22T03:52:04.995Z,22.6
2018-01-22T03:53:05.038Z,22.5
2018-01-22T03:54:04.838Z,22.6
2018-01-22T03:55:04.791Z,22.7
2018-01-22T03:56:04.721Z,22.8
2018-01-22T03:57:04.943Z,22.9
2018-01-22T03:58:04.583Z,22.8
2018-01-22T03:59:04.799Z,22.8
2018-01-22T04:00:04.445Z,22.6
2018-01-22T04:01:04.378Z,22.6
2018-01-22T04:02:04.327Z,22.4
2018-01-22T04:03:04.253Z,22.4
2018-01-22T04:04:04.448Z,22.3
2018-01-22T04:05:04.199Z,22.3
2018-01-22T04:06:04.157Z,22.3
2018-01-22T04:07:03.964Z,22.3
2018-01-22T04:08:03.988Z,22.4
2018-01-22T04:09:03.931Z,22.4
2018-01-22T04:10:03.772Z,22.3
2018-01-22T04:11:03.696Z,22.4
2018-01-22T04:12:03.768Z,22.4
2018-01-22T04:13:03.645Z,22.4
2018-01-22T04:14:03.479Z,22.5
2018-01-22T04:15:03.407Z,22.6
2018-01-22T04:16:03.340Z,22.6
2018-01-22T04:17:03.278Z,22.6
2018-01-22T04:18:03.192Z,22.5
2018-01-22T04:19:03.134Z,22.6
2018-01-22T04:20:03.113Z,22.7
2018-01-22T04:21:03.107Z,22.8
2018-01-22T04:22:03.028Z,22.9
2018-01-22T04:23:02.950Z,22.9
2018-01-22T04:24:03.035Z,22.9
2018-01-22T04:25:02.720Z,22.8
2018-01-22T04:26:02.629Z,22.9
2018-01-22T04:27:02.683Z,22.9
2018-01-22T04:28:02.612Z,22.9
2018-01-22T04:29:02.455Z,22.7
2018-01-22T04:30:02.474Z,22.5
2018-01-22T04:31:02.304Z,22.4
2018-01-22T04:32:02.272Z,22.3
2018-01-22T04:33:02.451Z,22.2
2018-01-22T04:34:02.118Z,22.1
2018-01-22T04:35:02.045Z,22.1
2018-01-22T04:36:01.959Z,22
2018-01-22T04:37:01.905Z,21.9
2018-01-22T04:38:01.842Z,21.9
2018-01-22T04:39:01.752Z,21.9
2018-01-22T04:40:01.691Z,21.9
2018-01-22T04:41:01.627Z,21.9
2018-01-22T04:42:01.535Z,22
2018-01-22T04:43:01.588Z,22.1
2018-01-22T04:44:01.406Z,22.1
2018-01-22T04:45:01.336Z,22.1
2018-01-22T04:46:01.558Z,22.3
2018-01-22T04:47:01.292Z,22.4
2018-01-22T04:48:01.133Z,22.6
2018-01-22T04:49:01.061Z,22.6
2018-01-22T04:50:01.174Z,22.8
2018-01-22T04:51:01.035Z,22.8
2018-01-22T04:52:00.856Z,22.8
2018-01-22T04:53:01.072Z,22.7
2018-01-22T04:54:00.707Z,22.6
2018-01-22T04:55:00.757Z,22.5
2018-01-22T04:56:00.616Z,22.4
2018-01-22T04:57:00.510Z,22.4
2018-01-22T04:58:00.460Z,22.4
2018-01-22T04:59:00.383Z,22.4
2018-01-22T05:00:00.278Z,22.4
2018-01-22T05:01:00.538Z,22.4
2018-01-22T05:02:00.258Z,22.3
2018-01-22T05:03:00.109Z,22.3
2018-01-22T05:04:00.030Z,22.2
2018-01-22T05:04:59.969Z,22.2
2018-01-22T05:05:59.876Z,22.1
2018-01-22T05:06:59.930Z,22.1
2018-01-22T05:07:59.753Z,22.1
2018-01-22T05:08:59.682Z,22.2
2018-01-22T05:09:59.630Z,22.3
2018-01-22T05:10:59.656Z,22.4
2018-01-22T05:11:59.573Z,22.4
2018-01-22T05:12:59.695Z,22.3
2018-01-22T05:13:59.470Z,22.4
2018-01-22T05:14:59.360Z,22.4
2018-01-22T05:15:59.240Z,22.4
2018-01-22T05:16:59.138Z,22.4
2018-01-22T05:17:59.160Z,22.5
2018-01-22T05:18:58.995Z,22.4
2018-01-22T05:19:58.927Z,22.5
2018-01-22T05:20:58.858Z,22.5
2018-01-22T05:21:58.856Z,22.5
2018-01-22T05:22:58.719Z,22.6
2018-01-22T05:23:58.621Z,22.6
2018-01-22T05:24:58.865Z,22.6
2018-01-22T05:25:58.513Z,22.7
2018-01-22T05:26:58.533Z,22.7
2018-01-22T05:27:58.346Z,22.8
2018-01-22T05:28:58.305Z,22.9
2018-01-22T05:29:58.220Z,22.9
2018-01-22T05:30:58.167Z,22.8
2018-01-22T05:31:58.202Z,22.7
2018-01-22T05:32:58.041Z,22.6
2018-01-22T05:33:57.961Z,22.4
2018-01-22T05:34:58.193Z,22.3
2018-01-22T05:35:57.977Z,22.1
2018-01-22T05:36:57.864Z,22.1
2018-01-22T05:37:57.707Z,22
2018-01-22T05:38:57.630Z,21.9
2018-01-22T05:39:57.547Z,21.9
2018-01-22T05:40:57.569Z,21.8
2018-01-22T05:41:57.431Z,21.7
2018-01-22T05:42:57.344Z,21.7
2018-01-22T05:43:57.371Z,21.7
2018-01-22T05:44:57.514Z,21.6
2018-01-22T05:45:57.122Z,21.6
2018-01-22T05:46:57.060Z,21.6
2018-01-22T05:47:57.276Z,21.6
2018-01-22T05:48:57.035Z,21.6
2018-01-22T05:49:56.855Z,21.6
2018-01-22T05:50:56.800Z,21.6
2018-01-22T05:51:56.717Z,21.7
2018-01-22T05:52:56.648Z,21.7
2018-01-22T05:53:56.886Z,21.7
2018-01-22T05:54:56.621Z,21.8
2018-01-22T05:55:56.445Z,21.8
2018-01-22T05:56:56.375Z,21.8
2018-01-22T05:57:56.296Z,21.8
2018-01-22T05:58:56.252Z,21.9
2018-01-22T05:59:56.136Z,21.9
2018-01-22T06:00:56.098Z,21.9
2018-01-22T06:01:56.096Z,21.9
2018-01-22T06:02:55.958Z,21.9
2018-01-22T06:03:56.039Z,22
2018-01-22T06:04:55.821Z,22
2018-01-22T06:05:55.751Z,22.1
2018-01-22T06:06:55.682Z,22.1
2018-01-22T06:07:55.651Z,22.1
2018-01-22T06:08:55.580Z,22.2
2018-01-22T06:09:55.540Z,22.3
2018-01-22T06:10:55.509Z,22.3
2018-01-22T06:11:55.388Z,22.4
2018-01-22T06:12:55.280Z,22.5
2018-01-22T06:13:55.223Z,22.6
2018-01-22T06:14:55.133Z,22.8
2018-01-22T06:15:55.213Z,22.8
2018-01-22T06:16:55.091Z,22.8
2018-01-22T06:17:54.904Z,22.6
2018-01-22T06:18:54.854Z,22.4
2018-01-22T06:19:54.880Z,22.1
2018-01-22T06:20:55.015Z,21.6
2018-01-22T06:21:54.645Z,21.3
2018-01-22T06:22:54.580Z,20.8
2018-01-22T06:23:54.759Z,20.4
2018-01-22T06:24:54.442Z,20
2018-01-22T06:25:54.492Z,19.6
2018-01-22T06:26:54.306Z,19.3
2018-01-22T06:27:54.236Z,19.6
2018-01-22T06:28:54.263Z,19.8
2018-01-22T06:29:54.067Z,20.1
2018-01-22T06:30:54.027Z,20.3
2018-01-22T06:31:54.057Z,20.5
2018-01-22T06:32:53.899Z,20.7
2018-01-22T07:01:51.905Z,21.5
2018-01-22T07:02:51.829Z,21.4
2018-01-22T07:03:51.715Z,21.5
2018-01-22T07:04:51.821Z,21.5
2018-01-22T07:05:51.619Z,21.6
2018-01-22T07:06:51.548Z,21.5
2018-01-22T07:07:51.563Z,21.4
2018-01-22T07:08:51.400Z,21.4
2018-01-22T07:09:51.323Z,21.5
2018-01-22T07:10:51.361Z,21.5
2018-01-22T07:11:51.229Z,21.6
2018-01-22T07:12:51.225Z,21.6
2018-01-22T07:13:51.073Z,21.6
2018-01-22T07:14:50.983Z,21.6
2018-01-22T07:15:50.886Z,21.7
2018-01-22T07:16:50.945Z,21.8
2018-01-22T07:17:50.898Z,21.8
2018-01-22T07:18:50.708Z,21.8
2018-01-22T07:19:50.790Z,21.9
2018-01-22T07:20:50.573Z,21.9
2018-01-22T07:21:50.599Z,21.9
2018-01-22T07:22:50.431Z,22
2018-01-22T07:23:50.334Z,22.1
2018-01-22T07:24:50.291Z,22.1
2018-01-22T07:25:50.246Z,22.1
2018-01-22T07:26:50.253Z,22.1
2018-01-22T07:27:50.125Z,22.1
2018-01-22T07:28:50.029Z,22.2
2018-01-22T07:29:50.214Z,22.3
2018-01-22T07:30:49.978Z,22.3
2018-01-22T07:31:49.814Z,22.3
2018-01-22T07:32:49.752Z,22.3
2018-01-22T07:33:49.792Z,22.4
2018-01-22T07:34:49.601Z,22.4
2018-01-22T07:35:49.531Z,22.4
2018-01-22T07:36:49.462Z,22.5
2018-01-22T07:37:49.406Z,22.5
2018-01-22T07:38:49.639Z,22.5
2018-01-22T07:39:49.256Z,22.6
2018-01-22T07:40:49.277Z,22.6
2018-01-22T07:41:49.202Z,22.6
2018-01-22T07:42:49.047Z,22.6
2018-01-22T07:43:49.082Z,22.7
2018-01-22T07:44:48.913Z,22.8
2018-01-22T07:45:49.146Z,22.9
2018-01-22T07:46:48.772Z,23.1
2018-01-22T07:47:48.702Z,23
2018-01-22T07:48:48.631Z,22.9
2018-01-22T07:49:48.588Z,22.7
2018-01-22T07:50:48.506Z,22.5
2018-01-22T07:51:48.464Z,22.3
2018-01-22T07:52:48.357Z,22.2
2018-01-22T07:53:48.386Z,22.1
2018-01-22T07:54:48.219Z,22.1
2018-01-22T07:55:48.150Z,21.9
2018-01-22T07:56:48.080Z,21.9
2018-01-22T07:57:48.000Z,21.8
2018-01-22T07:58:48.039Z,21.8
2018-01-22T07:59:47.845Z,21.8
2018-01-22T08:00:47.913Z,21.8
2018-01-22T08:01:47.740Z,21.8
2018-01-22T08:02:47.679Z,21.8
2018-01-22T08:03:47.686Z,21.7
2018-01-22T08:04:47.625Z,21.8
2018-01-22T08:05:47.436Z,21.8
2018-01-22T08:06:47.538Z,21.8
2018-01-22T08:07:47.322Z,21.8
2018-01-22T08:08:47.265Z,21.8
2018-01-22T08:09:47.282Z,21.9
2018-01-22T08:11:47.077Z,21.9
2018-01-22T08:12:47.011Z,21.9
2018-01-22T08:13:47.014Z,22
2018-01-22T08:14:46.954Z,22.1
2018-01-22T08:15:46.777Z,22.1
2018-01-22T08:16:46.791Z,22.1
2018-01-22T08:17:46.638Z,22.1
2018-01-22T08:18:46.578Z,22.2
2018-01-22T08:19:46.605Z,22.2
2018-01-22T08:20:46.419Z,22.3
2018-01-22T08:21:46.459Z,22.3
2018-01-22T08:22:46.411Z,22.3
2018-01-22T08:23:46.222Z,22.4
2018-01-22T08:24:46.143Z,22.4
2018-01-22T08:25:46.087Z,22.4
2018-01-22T08:26:46.097Z,22.4
2018-01-22T08:27:46.045Z,22.4
2018-01-22T08:28:45.873Z,22.5
2018-01-22T08:29:45.895Z,22.5
2018-01-22T08:30:45.720Z,22.6
2018-01-22T08:31:45.750Z,22.6
2018-01-22T08:32:45.588Z,22.6
2018-01-22T08:33:45.810Z,22.6
2018-01-22T08:34:45.475Z,22.6
2018-01-22T08:35:45.393Z,22.7
2018-01-22T08:36:45.284Z,22.8
2018-01-22T08:37:45.243Z,22.9
2018-01-22T08:38:45.171Z,23.1
2018-01-22T08:39:45.217Z,23
2018-01-22T08:40:45.076Z,22.8
2018-01-22T08:41:44.966Z,22.6
2018-01-22T08:42:45.006Z,22.5
2018-01-22T08:43:45.129Z,22.3
2018-01-22T08:44:44.798Z,22.2
2018-01-22T08:45:44.690Z,22.1
2018-01-22T08:46:44.643Z,22.1
2018-01-22T08:47:44.839Z,21.9
2018-01-22T08:48:44.535Z,21.9
2018-01-22T08:49:44.505Z,21.8
2018-01-22T08:50:44.369Z,21.8
2018-01-22T08:51:44.376Z,21.8
2018-01-22T08:52:44.244Z,21.7
2018-01-22T08:53:44.140Z,21.7
2018-01-22T08:54:44.047Z,21.7
2018-01-22T08:55:43.996Z,21.7
2018-01-22T08:56:44.209Z,21.8
2018-01-22T08:57:43.861Z,21.8
2018-01-22T08:58:43.791Z,21.9
2018-01-22T08:59:43.721Z,21.9
2018-01-22T09:00:43.624Z,21.9
2018-01-22T09:01:43.692Z,22
2018-01-22T09:02:43.534Z,22.1
2018-01-22T09:03:43.554Z,22.1
2018-01-22T09:04:43.378Z,22.1
2018-01-22T09:05:43.401Z,22.3
2018-01-22T09:06:43.208Z,22.3
2018-01-22T09:07:43.166Z,22.3
2018-01-22T09:08:43.148Z,22.3
2018-01-22T09:09:43.039Z,22.3
2018-01-22T09:10:42.979Z,22.3
2018-01-22T09:11:42.982Z,22.3
2018-01-22T09:12:42.871Z,22.4
2018-01-22T09:13:42.750Z,22.4
2018-01-22T09:14:42.772Z,22.4
2018-01-22T09:15:42.704Z,22.5
2018-01-22T09:16:42.544Z,22.4
2018-01-22T09:17:42.486Z,22.4
2018-01-22T09:18:42.482Z,22.4
2018-01-22T09:19:42.342Z,22.5
2018-01-22T09:20:42.390Z,22.5
2018-01-22T09:21:42.307Z,22.5
2018-01-22T09:22:42.209Z,22.6
2018-01-22T09:23:42.161Z,22.6
2018-01-22T09:24:41.988Z,22.6
2018-01-22T09:25:41.926Z,22.6
2018-01-22T09:26:41.871Z,22.6
2018-01-22T09:27:41.797Z,22.7
2018-01-22T09:28:41.715Z,22.8
2018-01-22T09:29:41.657Z,22.9
2018-01-22T09:30:41.587Z,23.1
2018-01-22T09:31:41.503Z,22.9
2018-01-22T09:32:41.727Z,22.8
2018-01-22T09:33:41.371Z,22.6
2018-01-22T09:34:41.367Z,22.4
2018-01-22T09:35:41.240Z,22.3
2018-01-22T09:36:41.158Z,22.2
2018-01-22T09:37:41.188Z,22.1
2018-01-22T09:38:41.154Z,22.1
2018-01-22T09:39:40.964Z,22
2018-01-22T09:40:40.857Z,21.9
2018-01-22T09:41:40.850Z,21.9
2018-01-22T09:42:40.739Z,21.9
2018-01-22T09:43:40.672Z,21.8
2018-01-22T09:44:40.646Z,21.8
2018-01-22T09:45:40.540Z,21.8
2018-01-22T09:46:40.565Z,21.8
2018-01-22T09:47:40.496Z,21.8
2018-01-22T09:48:40.370Z,21.8
2018-01-22T09:49:40.357Z,21.8
2018-01-22T09:50:40.510Z,21.9
2018-01-22T09:51:40.220Z,21.9
2018-01-22T09:52:40.030Z,21.9
2018-01-22T09:53:40.074Z,21.9
2018-01-22T09:54:39.933Z,22
2018-01-22T09:55:39.852Z,22.1
2018-01-22T09:56:39.813Z,22.1
2018-01-22T09:57:39.707Z,22.1
2018-01-22T09:58:39.616Z,22.2
2018-01-22T09:59:39.567Z,22.2
2018-01-22T10:00:39.593Z,22.2
2018-01-22T10:01:39.716Z,22.3
2018-01-22T10:02:39.358Z,22.3
2018-01-22T10:03:39.294Z,22.3
2018-01-22T10:04:39.269Z,22.4
2018-01-22T10:05:39.265Z,22.4
2018-01-22T10:06:39.202Z,22.4
2018-01-22T10:07:39.123Z,22.4
2018-01-22T10:08:38.948Z,22.4
2018-01-22T10:09:38.948Z,22.5
2018-01-22T10:10:38.774Z,22.5
2018-01-22T10:11:38.840Z,22.5
2018-01-22T10:12:38.768Z,22.5
2018-01-22T10:13:38.612Z,22.6
2018-01-22T10:14:38.519Z,22.6
2018-01-22T10:15:38.572Z,22.6
2018-01-22T10:16:38.432Z,22.6
2018-01-22T10:17:38.321Z,22.8
2018-01-22T10:18:38.365Z,22.9
2018-01-22T10:19:38.292Z,23.1
2018-01-22T10:20:38.118Z,23
2018-01-22T10:21:38.327Z,22.8
2018-01-22T10:22:38.114Z,22.7
2018-01-22T10:23:38.004Z,22.5
2018-01-22T10:24:37.886Z,22.3
2018-01-22T10:25:37.865Z,22.2
2018-01-22T10:26:37.692Z,22.1
2018-01-22T10:27:37.826Z,22
2018-01-22T10:28:37.598Z,21.9
2018-01-22T10:29:37.588Z,21.9
2018-01-22T10:30:37.400Z,21.8
2018-01-22T10:31:37.644Z,21.8
2018-01-22T10:32:37.254Z,21.7
2018-01-22T10:33:37.213Z,21.7
2018-01-22T10:34:37.145Z,21.6
2018-01-22T10:35:37.075Z,21.6
2018-01-22T10:36:37.057Z,21.6
2018-01-22T10:37:37.230Z,21.6
2018-01-22T10:38:36.987Z,21.6
2018-01-22T10:39:36.927Z,21.7
2018-01-22T10:40:36.767Z,21.8
2018-01-22T10:41:36.972Z,21.8
2018-01-22T10:42:36.570Z,21.8
2018-01-22T10:43:36.522Z,21.9
2018-01-22T10:44:36.737Z,21.9
2018-01-22T10:45:36.478Z,22
2018-01-22T10:46:36.334Z,22.1
2018-01-22T10:47:36.245Z,22.1
2018-01-22T10:48:36.270Z,22.2
2018-01-22T10:49:36.093Z,22.2
2018-01-22T10:50:36.028Z,22.2
2018-01-22T10:51:36.029Z,22.3
2018-01-22T10:52:35.862Z,22.3
2018-01-22T10:53:35.870Z,22.4
2018-01-22T10:54:35.683Z,22.4
2018-01-22T10:55:35.734Z,22.4
2018-01-22T10:56:35.644Z,22.5
2018-01-22T10:57:35.468Z,22.4
2018-01-22T10:58:35.515Z,22.5
2018-01-22T10:59:35.416Z,22.5
2018-01-22T11:00:35.228Z,22.6
2018-01-22T11:01:35.263Z,22.6
2018-01-22T11:02:35.090Z,22.6
2018-01-22T11:03:35.084Z,22.7
2018-01-22T11:04:35.065Z,22.8
2018-01-22T11:05:34.837Z,22.9
2018-01-22T11:06:34.766Z,23.1
2018-01-22T11:07:34.976Z,23
2018-01-22T11:08:34.606Z,22.8
2018-01-22T11:09:34.521Z,22.6
2018-01-22T11:10:34.511Z,22.5
2018-01-22T11:11:34.370Z,22.4
2018-01-22T11:12:34.436Z,22.3
2018-01-22T11:13:34.223Z,22.2
2018-01-22T11:14:34.224Z,22.1
2018-01-22T11:15:34.048Z,22
2018-01-22T11:16:34.123Z,21.9
2018-01-22T11:17:33.893Z,21.9
2018-01-22T11:18:33.836Z,21.9
2018-01-22T11:19:33.834Z,21.8
2018-01-22T11:20:33.937Z,21.8
2018-01-22T11:21:33.866Z,21.8
2018-01-22T11:22:33.500Z,21.8
2018-01-22T11:23:33.521Z,21.8
2018-01-22T11:24:33.314Z,21.8
2018-01-22T11:25:33.280Z,21.9
2018-01-22T11:26:33.266Z,21.9
2018-01-22T11:27:33.222Z,21.9
2018-01-22T11:28:33.033Z,22
2018-01-22T11:29:32.950Z,22.1
2018-01-22T11:30:32.952Z,22.1
2018-01-22T11:31:32.893Z,22.1
2018-01-22T11:32:32.713Z,22.2
2018-01-22T11:33:32.634Z,22.3
2018-01-22T11:34:32.576Z,22.4
2018-01-22T11:35:32.571Z,22.4
2018-01-22T11:36:32.501Z,22.5
2018-01-22T11:37:32.334Z,22.5
2018-01-22T11:38:32.252Z,22.6
2018-01-22T11:39:32.169Z,22.6
2018-01-22T11:40:32.189Z,22.7
2018-01-22T11:41:32.013Z,22.8
2018-01-22T11:42:31.995Z,22.9
2018-01-22T11:43:31.940Z,23
2018-01-22T11:44:31.882Z,22.9
2018-01-22T11:45:31.792Z,22.8
2018-01-22T11:46:31.745Z,22.6
2018-01-22T11:47:31.623Z,22.4
2018-01-22T11:48:31.506Z,22.3
2018-01-22T11:49:31.478Z,22.3
2018-01-22T11:50:31.287Z,22.1
2018-01-22T11:51:31.218Z,22
2018-01-22T11:52:31.180Z,22
2018-01-22T11:53:31.065Z,21.9
2018-01-22T11:54:31.032Z,21.9
2018-01-22T11:55:30.905Z,21.8
2018-01-22T11:56:30.914Z,21.7
2018-01-22T11:57:30.771Z,21.7
2018-01-22T11:58:30.681Z,21.6
2018-01-22T11:59:30.631Z,21.6
2018-01-22T12:00:30.664Z,21.7
2018-01-22T12:01:30.523Z,21.7
2018-01-22T12:02:30.474Z,21.8
2018-01-22T12:03:30.282Z,21.8
2018-01-22T12:04:30.236Z,21.8
2018-01-22T12:05:30.119Z,21.9
2018-01-22T12:06:30.117Z,22.1
2018-01-22T12:07:29.963Z,22.1
2018-01-22T12:08:29.885Z,22.1
2018-01-22T12:09:29.815Z,22.2
2018-01-22T12:10:29.737Z,22.1
2018-01-22T12:11:29.646Z,22.1
2018-01-22T12:12:29.609Z,22.2
2018-01-22T12:13:29.581Z,22.3
2018-01-22T12:14:29.394Z,22.4
2018-01-22T12:15:29.343Z,22.4
2018-01-22T12:16:29.252Z,22.4
2018-01-22T12:17:29.468Z,22.4
2018-01-22T12:18:29.134Z,22.4
2018-01-22T12:19:29.351Z,22.5
2018-01-22T12:20:29.038Z,22.6
2018-01-22T12:21:28.861Z,22.6
2018-01-22T12:22:29.048Z,22.6
2018-01-22T12:23:28.700Z,22.6
2018-01-22T12:24:28.662Z,22.6
2018-01-22T12:25:28.547Z,22.6
2018-01-22T12:26:28.464Z,22.6
2018-01-22T12:27:28.387Z,22.6
2018-01-22T12:28:28.313Z,22.6
2018-01-22T12:29:28.515Z,22.7
2018-01-22T12:30:28.173Z,22.9
2018-01-22T12:31:28.082Z,23
2018-01-22T12:32:27.972Z,23
2018-01-22T12:33:28.018Z,22.9
2018-01-22T12:34:27.830Z,22.8
2018-01-22T12:35:27.773Z,22.6
2018-01-22T12:36:27.833Z,22.5
2018-01-22T12:37:27.603Z,22.4
2018-01-22T12:38:27.603Z,22.3
2018-01-22T12:39:27.745Z,22.1
2018-01-22T12:40:27.339Z,22.1
2018-01-22T12:41:27.388Z,22
2018-01-22T12:42:27.308Z,21.9
2018-01-22T12:43:27.132Z,21.9
2018-01-22T12:44:27.022Z,21.8
2018-01-22T12:45:27.264Z,21.8
2018-01-22T12:46:26.916Z,21.8
2018-01-22T12:47:26.819Z,21.7
2018-01-22T12:48:26.775Z,21.7
2018-01-22T12:49:26.671Z,21.7
2018-01-22T12:50:26.565Z,21.7
2018-01-22T12:51:26.501Z,21.8
2018-01-22T12:52:26.429Z,21.8
2018-01-22T12:53:26.358Z,21.9
2018-01-22T12:54:26.289Z,21.9
2018-01-22T12:55:26.192Z,21.9
2018-01-22T12:56:26.206Z,22
2018-01-22T12:57:26.030Z,22.1
2018-01-22T12:58:26.043Z,22.1
2018-01-22T12:59:25.887Z,22.2
2018-01-22T13:00:25.892Z,22.3
2018-01-22T13:01:25.808Z,22.3
2018-01-22T13:02:25.619Z,22.3
2018-01-22T13:03:25.556Z,22.4
2018-01-22T13:04:25.588Z,22.4
2018-01-22T13:05:25.514Z,22.4
2018-01-22T13:06:25.408Z,22.4
2018-01-22T13:07:25.250Z,22.5
2018-01-22T13:08:25.217Z,22.6
2018-01-22T13:09:25.093Z,22.6
2018-01-22T13:10:25.130Z,22.6
2018-01-22T13:11:25.030Z,22.6
2018-01-22T13:12:24.856Z,22.6
2018-01-22T13:13:24.786Z,22.8
2018-01-22T13:14:24.787Z,22.9
2018-01-22T13:15:24.716Z,23.1
2018-01-22T13:16:24.577Z,22.9
2018-01-22T13:17:24.552Z,22.8
2018-01-22T13:18:24.367Z,22.6
2018-01-22T13:19:24.392Z,22.5
2018-01-22T13:20:24.223Z,22.4
2018-01-22T13:21:24.191Z,22.3
2018-01-22T13:22:24.393Z,22.2
2018-01-22T13:23:24.041Z,22.1
2018-01-22T13:24:24.007Z,22.1
2018-01-22T13:25:23.943Z,22
2018-01-22T13:26:23.743Z,21.9
2018-01-22T13:27:23.673Z,21.9
2018-01-22T13:28:23.634Z,21.8
2018-01-22T13:29:23.523Z,21.8
2018-01-22T13:30:23.548Z,21.8
2018-01-22T13:31:23.357Z,21.8
2018-01-22T13:32:23.565Z,21.7
2018-01-22T13:33:23.202Z,21.7
2018-01-22T13:34:23.144Z,21.8
2018-01-22T13:35:23.146Z,21.8
2018-01-22T13:36:22.937Z,21.9
2018-01-22T13:37:22.895Z,21.9
2018-01-22T13:38:22.805Z,21.9
2018-01-22T13:39:22.744Z,22
2018-01-22T13:40:22.691Z,22.1
2018-01-22T13:41:22.577Z,22
2018-01-22T13:42:22.576Z,22.1
2018-01-22T13:43:22.515Z,22.1
2018-01-22T13:44:22.308Z,22.3
2018-01-22T13:45:22.357Z,22.3
2018-01-22T13:46:22.182Z,22.3
2018-01-22T13:47:22.104Z,22.3
2018-01-22T13:48:21.993Z,22.3
2018-01-22T13:49:22.054Z,22.3